sensor_id;sensor_type;location;lat;lon;timestamp;P1;durP1;ratioP1;P2;durP2;ratioP2
5412;SDS011;2729;50.056;8.678;2022-07-29T00:01:52;2.20;;;1.37;;
5412;SDS011;2729;50.056;8.678;2022-07-29T00:04:18;2.67;;;1.40;;
5412;SDS011;2729;50.056;8.678;2022-07-29T00:06:45;1.77;;;1.50;;
5412;SDS011;2729;50.056;8.678;2022-07-29T00:09:11;2.67;;;1.53;;
5412;SDS011;2729;50.056;8.678;2022-07-29T00:11:37;1.53;;;1.43;;
5412;SDS011;2729;50.056;8.678;2022-07-29T00:14:03;1.63;;;1.30;;
5412;SDS011;2729;50.056;8.678;2022-07-29T00:16:29;3.30;;;1.30;;
5412;SDS011;2729;50.056;8.678;2022-07-29T00:18:55;2.33;;;1.50;;
5412;SDS011;2729;50.056;8.678;2022-07-29T00:21:21;1.73;;;1.50;;
5412;SDS011;2729;50.056;8.678;2022-07-29T00:23:47;1.40;;;1.30;;
5412;SDS011;2729;50.056;8.678;2022-07-29T00:26:13;1.50;;;1.40;;
5412;SDS011;2729;50.056;8.678;2022-07-29T00:28:39;3.27;;;1.40;;
5412;SDS011;2729;50.056;8.678;2022-07-29T00:31:05;2.70;;;1.50;;
5412;SDS011;2729;50.056;8.678;2022-07-29T00:33:31;1.60;;;1.50;;
5412;SDS011;2729;50.056;8.678;2022-07-29T00:35:57;1.50;;;1.40;;
5412;SDS011;2729;50.056;8.678;2022-07-29T00:38:23;1.00;;;1.00;;
5412;SDS011;2729;50.056;8.678;2022-07-29T00:40:49;1.50;;;1.40;;
5412;SDS011;2729;50.056;8.678;2022-07-29T00:43:15;2.80;;;1.40;;
5412;SDS011;2729;50.056;8.678;2022-07-29T00:45:42;3.90;;;1.37;;
5412;SDS011;2729;50.056;8.678;2022-07-29T00:48:08;2.50;;;1.30;;
5412;SDS011;2729;50.056;8.678;2022-07-29T00:50:34;3.50;;;1.53;;
5412;SDS011;2729;50.056;8.678;2022-07-29T00:53:02;1.60;;;1.47;;
5412;SDS011;2729;50.056;8.678;2022-07-29T00:55:28;1.20;;;1.20;;
5412;SDS011;2729;50.056;8.678;2022-07-29T00:57:55;2.40;;;1.70;;
5412;SDS011;2729;50.056;8.678;2022-07-29T01:00:23;5.27;;;1.43;;
5412;SDS011;2729;50.056;8.678;2022-07-29T01:02:51;5.23;;;1.57;;
5412;SDS011;2729;50.056;8.678;2022-07-29T01:05:18;1.70;;;1.60;;
5412;SDS011;2729;50.056;8.678;2022-07-29T01:07:45;1.70;;;1.53;;
5412;SDS011;2729;50.056;8.678;2022-07-29T01:10:14;3.17;;;1.57;;
5412;SDS011;2729;50.056;8.678;2022-07-29T01:12:41;1.53;;;1.43;;
5412;SDS011;2729;50.056;8.678;2022-07-29T01:15:10;1.67;;;1.50;;
5412;SDS011;2729;50.056;8.678;2022-07-29T01:17:44;1.47;;;1.37;;
5412;SDS011;2729;50.056;8.678;2022-07-29T01:26:33;1.27;;;1.17;;
5412;SDS011;2729;50.056;8.678;2022-07-29T01:29:24;2.47;;;1.60;;
5412;SDS011;2729;50.056;8.678;2022-07-29T01:32:05;3.80;;;1.70;;
5412;SDS011;2729;50.056;8.678;2022-07-29T01:34:35;1.60;;;1.50;;
5412;SDS011;2729;50.056;8.678;2022-07-29T01:39:38;1.60;;;1.50;;
5412;SDS011;2729;50.056;8.678;2022-07-29T01:42:12;6.73;;;1.30;;
5412;SDS011;2729;50.056;8.678;2022-07-29T01:45:02;3.03;;;1.53;;
5412;SDS011;2729;50.056;8.678;2022-07-29T01:47:38;2.60;;;1.53;;
5412;SDS011;2729;50.056;8.678;2022-07-29T01:50:10;1.47;;;1.30;;
5412;SDS011;2729;50.056;8.678;2022-07-29T01:52:41;1.40;;;1.30;;
5412;SDS011;2729;50.056;8.678;2022-07-29T01:55:15;4.40;;;1.13;;
5412;SDS011;2729;50.056;8.678;2022-07-29T01:57:44;1.83;;;1.73;;
5412;SDS011;2729;50.056;8.678;2022-07-29T02:00:12;2.00;;;1.60;;
5412;SDS011;2729;50.056;8.678;2022-07-29T02:02:39;1.43;;;1.33;;
5412;SDS011;2729;50.056;8.678;2022-07-29T02:05:08;1.50;;;1.43;;
5412;SDS011;2729;50.056;8.678;2022-07-29T02:07:38;1.60;;;1.50;;
5412;SDS011;2729;50.056;8.678;2022-07-29T02:10:06;2.30;;;1.50;;
5412;SDS011;2729;50.056;8.678;2022-07-29T02:12:33;2.10;;;1.80;;
5412;SDS011;2729;50.056;8.678;2022-07-29T02:15:02;3.60;;;1.80;;
5412;SDS011;2729;50.056;8.678;2022-07-29T02:17:35;1.90;;;1.73;;
5412;SDS011;2729;50.056;8.678;2022-07-29T02:20:06;3.63;;;1.50;;
5412;SDS011;2729;50.056;8.678;2022-07-29T02:22:35;2.30;;;1.63;;
5412;SDS011;2729;50.056;8.678;2022-07-29T02:25:04;1.60;;;1.50;;
5412;SDS011;2729;50.056;8.678;2022-07-29T02:27:32;2.30;;;1.73;;
5412;SDS011;2729;50.056;8.678;2022-07-29T02:30:00;3.90;;;1.67;;
5412;SDS011;2729;50.056;8.678;2022-07-29T02:32:28;4.03;;;1.67;;
5412;SDS011;2729;50.056;8.678;2022-07-29T02:34:56;2.23;;;1.90;;
5412;SDS011;2729;50.056;8.678;2022-07-29T02:37:24;1.53;;;1.43;;
5412;SDS011;2729;50.056;8.678;2022-07-29T02:39:53;3.10;;;1.40;;
5412;SDS011;2729;50.056;8.678;2022-07-29T02:42:21;2.10;;;1.80;;
5412;SDS011;2729;50.056;8.678;2022-07-29T02:44:48;1.43;;;1.30;;
5412;SDS011;2729;50.056;8.678;2022-07-29T02:47:18;1.77;;;1.67;;
5412;SDS011;2729;50.056;8.678;2022-07-29T02:50:06;3.83;;;1.57;;
5412;SDS011;2729;50.056;8.678;2022-07-29T02:52:52;4.43;;;1.67;;
5412;SDS011;2729;50.056;8.678;2022-07-29T02:55:25;1.80;;;1.70;;
5412;SDS011;2729;50.056;8.678;2022-07-29T02:58:02;3.67;;;1.70;;
5412;SDS011;2729;50.056;8.678;2022-07-29T03:00:31;3.67;;;1.67;;
5412;SDS011;2729;50.056;8.678;2022-07-29T03:03:04;2.07;;;1.80;;
5412;SDS011;2729;50.056;8.678;2022-07-29T03:05:34;2.50;;;1.97;;
5412;SDS011;2729;50.056;8.678;2022-07-29T03:08:02;1.93;;;1.83;;
5412;SDS011;2729;50.056;8.678;2022-07-29T03:10:31;2.60;;;2.00;;
5412;SDS011;2729;50.056;8.678;2022-07-29T03:12:57;1.67;;;1.40;;
5412;SDS011;2729;50.056;8.678;2022-07-29T03:15:23;1.97;;;1.77;;
5412;SDS011;2729;50.056;8.678;2022-07-29T03:17:50;2.70;;;1.77;;
5412;SDS011;2729;50.056;8.678;2022-07-29T03:20:18;2.30;;;2.00;;
5412;SDS011;2729;50.056;8.678;2022-07-29T03:22:44;2.20;;;2.03;;
5412;SDS011;2729;50.056;8.678;2022-07-29T03:25:13;2.00;;;1.90;;
5412;SDS011;2729;50.056;8.678;2022-07-29T03:27:40;9.17;;;2.10;;
5412;SDS011;2729;50.056;8.678;2022-07-29T03:30:06;4.07;;;2.50;;
5412;SDS011;2729;50.056;8.678;2022-07-29T03:32:33;3.73;;;2.67;;
5412;SDS011;2729;50.056;8.678;2022-07-29T03:35:00;1.90;;;1.80;;
5412;SDS011;2729;50.056;8.678;2022-07-29T03:37:26;2.37;;;2.00;;
5412;SDS011;2729;50.056;8.678;2022-07-29T03:39:52;3.70;;;2.20;;
5412;SDS011;2729;50.056;8.678;2022-07-29T03:42:21;2.07;;;1.97;;
5412;SDS011;2729;50.056;8.678;2022-07-29T03:44:50;2.13;;;2.03;;
5412;SDS011;2729;50.056;8.678;2022-07-29T03:47:18;2.27;;;2.00;;
5412;SDS011;2729;50.056;8.678;2022-07-29T03:49:48;2.07;;;1.93;;
5412;SDS011;2729;50.056;8.678;2022-07-29T03:52:17;2.40;;;2.20;;
5412;SDS011;2729;50.056;8.678;2022-07-29T03:54:44;2.70;;;2.00;;
5412;SDS011;2729;50.056;8.678;2022-07-29T03:57:10;4.83;;;1.70;;
5412;SDS011;2729;50.056;8.678;2022-07-29T03:59:37;2.70;;;1.93;;
5412;SDS011;2729;50.056;8.678;2022-07-29T04:02:05;3.10;;;1.93;;
5412;SDS011;2729;50.056;8.678;2022-07-29T04:04:35;3.63;;;1.97;;
5412;SDS011;2729;50.056;8.678;2022-07-29T04:07:02;4.47;;;2.33;;
5412;SDS011;2729;50.056;8.678;2022-07-29T04:09:29;2.87;;;1.90;;
5412;SDS011;2729;50.056;8.678;2022-07-29T04:11:55;1.63;;;1.53;;
5412;SDS011;2729;50.056;8.678;2022-07-29T04:14:21;3.90;;;2.10;;
5412;SDS011;2729;50.056;8.678;2022-07-29T04:16:47;2.03;;;1.90;;
5412;SDS011;2729;50.056;8.678;2022-07-29T04:19:13;2.00;;;1.90;;
5412;SDS011;2729;50.056;8.678;2022-07-29T04:21:39;2.90;;;2.07;;
5412;SDS011;2729;50.056;8.678;2022-07-29T04:24:06;3.07;;;2.20;;
5412;SDS011;2729;50.056;8.678;2022-07-29T04:26:33;2.17;;;2.07;;
5412;SDS011;2729;50.056;8.678;2022-07-29T04:29:00;3.20;;;2.07;;
5412;SDS011;2729;50.056;8.678;2022-07-29T04:31:26;1.90;;;1.80;;
5412;SDS011;2729;50.056;8.678;2022-07-29T04:33:52;5.13;;;2.20;;
5412;SDS011;2729;50.056;8.678;2022-07-29T04:36:18;1.97;;;1.87;;
5412;SDS011;2729;50.056;8.678;2022-07-29T04:38:44;2.13;;;1.90;;
5412;SDS011;2729;50.056;8.678;2022-07-29T04:41:10;7.30;;;1.87;;
5412;SDS011;2729;50.056;8.678;2022-07-29T04:43:36;3.40;;;2.40;;
5412;SDS011;2729;50.056;8.678;2022-07-29T04:46:02;2.43;;;2.10;;
5412;SDS011;2729;50.056;8.678;2022-07-29T04:48:29;10.70;;;2.20;;
5412;SDS011;2729;50.056;8.678;2022-07-29T04:50:55;2.93;;;2.00;;
5412;SDS011;2729;50.056;8.678;2022-07-29T04:53:22;2.60;;;1.70;;
5412;SDS011;2729;50.056;8.678;2022-07-29T04:55:48;3.40;;;2.40;;
5412;SDS011;2729;50.056;8.678;2022-07-29T04:58:14;2.57;;;1.87;;
5412;SDS011;2729;50.056;8.678;2022-07-29T05:00:40;5.20;;;1.90;;
5412;SDS011;2729;50.056;8.678;2022-07-29T05:03:06;1.90;;;1.80;;
5412;SDS011;2729;50.056;8.678;2022-07-29T05:05:32;1.60;;;1.50;;
5412;SDS011;2729;50.056;8.678;2022-07-29T05:07:58;1.70;;;1.60;;
5412;SDS011;2729;50.056;8.678;2022-07-29T05:10:24;3.47;;;1.70;;
5412;SDS011;2729;50.056;8.678;2022-07-29T05:12:50;1.87;;;1.77;;
5412;SDS011;2729;50.056;8.678;2022-07-29T05:15:16;2.93;;;2.10;;
5412;SDS011;2729;50.056;8.678;2022-07-29T05:17:43;2.40;;;1.60;;
5412;SDS011;2729;50.056;8.678;2022-07-29T05:20:09;2.30;;;1.97;;
5412;SDS011;2729;50.056;8.678;2022-07-29T05:22:35;1.60;;;1.50;;
5412;SDS011;2729;50.056;8.678;2022-07-29T05:25:01;4.00;;;2.17;;
5412;SDS011;2729;50.056;8.678;2022-07-29T05:27:27;1.83;;;1.73;;
5412;SDS011;2729;50.056;8.678;2022-07-29T05:29:54;2.30;;;1.60;;
5412;SDS011;2729;50.056;8.678;2022-07-29T05:32:19;1.90;;;1.50;;
5412;SDS011;2729;50.056;8.678;2022-07-29T05:34:45;4.03;;;1.60;;
5412;SDS011;2729;50.056;8.678;2022-07-29T05:37:11;1.70;;;1.60;;
5412;SDS011;2729;50.056;8.678;2022-07-29T05:39:39;6.00;;;2.10;;
5412;SDS011;2729;50.056;8.678;2022-07-29T05:42:09;3.00;;;1.67;;
5412;SDS011;2729;50.056;8.678;2022-07-29T05:44:36;4.20;;;1.60;;
5412;SDS011;2729;50.056;8.678;2022-07-29T05:47:03;3.20;;;1.67;;
5412;SDS011;2729;50.056;8.678;2022-07-29T05:49:29;1.63;;;1.53;;
5412;SDS011;2729;50.056;8.678;2022-07-29T05:51:55;5.40;;;1.80;;
5412;SDS011;2729;50.056;8.678;2022-07-29T05:54:21;2.27;;;1.83;;
5412;SDS011;2729;50.056;8.678;2022-07-29T05:56:47;5.43;;;2.03;;
5412;SDS011;2729;50.056;8.678;2022-07-29T05:59:12;3.63;;;2.13;;
5412;SDS011;2729;50.056;8.678;2022-07-29T06:01:38;2.80;;;1.50;;
5412;SDS011;2729;50.056;8.678;2022-07-29T06:04:05;5.50;;;2.00;;
5412;SDS011;2729;50.056;8.678;2022-07-29T06:06:32;1.93;;;1.70;;
5412;SDS011;2729;50.056;8.678;2022-07-29T06:08:59;1.67;;;1.50;;
5412;SDS011;2729;50.056;8.678;2022-07-29T06:11:25;3.83;;;1.80;;
5412;SDS011;2729;50.056;8.678;2022-07-29T06:13:51;2.40;;;1.73;;
5412;SDS011;2729;50.056;8.678;2022-07-29T06:16:18;1.60;;;1.50;;
5412;SDS011;2729;50.056;8.678;2022-07-29T06:18:44;6.80;;;1.90;;
5412;SDS011;2729;50.056;8.678;2022-07-29T06:21:10;2.67;;;2.00;;
5412;SDS011;2729;50.056;8.678;2022-07-29T06:23:37;2.83;;;1.70;;
5412;SDS011;2729;50.056;8.678;2022-07-29T06:26:03;2.70;;;1.70;;
5412;SDS011;2729;50.056;8.678;2022-07-29T06:28:30;2.97;;;1.80;;
5412;SDS011;2729;50.056;8.678;2022-07-29T06:30:56;4.60;;;1.60;;
5412;SDS011;2729;50.056;8.678;2022-07-29T06:33:21;2.23;;;2.07;;
5412;SDS011;2729;50.056;8.678;2022-07-29T06:35:47;2.73;;;1.70;;
5412;SDS011;2729;50.056;8.678;2022-07-29T06:38:14;2.17;;;1.97;;
5412;SDS011;2729;50.056;8.678;2022-07-29T06:40:41;3.70;;;1.60;;
5412;SDS011;2729;50.056;8.678;2022-07-29T06:43:34;3.50;;;1.83;;
5412;SDS011;2729;50.056;8.678;2022-07-29T06:46:08;1.67;;;1.57;;
5412;SDS011;2729;50.056;8.678;2022-07-29T06:48:36;1.73;;;1.63;;
5412;SDS011;2729;50.056;8.678;2022-07-29T06:51:03;6.27;;;2.20;;
5412;SDS011;2729;50.056;8.678;2022-07-29T06:53:30;1.70;;;1.60;;
5412;SDS011;2729;50.056;8.678;2022-07-29T06:55:57;2.10;;;1.60;;
5412;SDS011;2729;50.056;8.678;2022-07-29T06:58:23;3.20;;;2.03;;
5412;SDS011;2729;50.056;8.678;2022-07-29T07:00:54;1.93;;;1.83;;
5412;SDS011;2729;50.056;8.678;2022-07-29T07:03:21;1.60;;;1.50;;
5412;SDS011;2729;50.056;8.678;2022-07-29T07:05:48;2.97;;;1.67;;
5412;SDS011;2729;50.056;8.678;2022-07-29T07:08:14;2.50;;;1.70;;
5412;SDS011;2729;50.056;8.678;2022-07-29T07:10:42;2.30;;;1.73;;
5412;SDS011;2729;50.056;8.678;2022-07-29T07:13:08;1.90;;;1.80;;
5412;SDS011;2729;50.056;8.678;2022-07-29T07:15:35;3.63;;;2.10;;
5412;SDS011;2729;50.056;8.678;2022-07-29T07:18:02;2.30;;;2.10;;
5412;SDS011;2729;50.056;8.678;2022-07-29T07:20:29;2.20;;;1.80;;
5412;SDS011;2729;50.056;8.678;2022-07-29T07:22:55;3.43;;;1.90;;
5412;SDS011;2729;50.056;8.678;2022-07-29T07:25:21;1.80;;;1.70;;
5412;SDS011;2729;50.056;8.678;2022-07-29T07:27:46;1.60;;;1.60;;
5412;SDS011;2729;50.056;8.678;2022-07-29T07:30:13;1.83;;;1.73;;
5412;SDS011;2729;50.056;8.678;2022-07-29T07:32:39;2.13;;;1.60;;
5412;SDS011;2729;50.056;8.678;2022-07-29T07:35:06;5.60;;;1.63;;
5412;SDS011;2729;50.056;8.678;2022-07-29T07:37:33;3.37;;;1.80;;
5412;SDS011;2729;50.056;8.678;2022-07-29T07:39:59;5.23;;;2.10;;
5412;SDS011;2729;50.056;8.678;2022-07-29T07:42:25;3.07;;;1.97;;
5412;SDS011;2729;50.056;8.678;2022-07-29T07:44:51;2.90;;;1.53;;
5412;SDS011;2729;50.056;8.678;2022-07-29T07:47:18;2.13;;;1.57;;
5412;SDS011;2729;50.056;8.678;2022-07-29T07:49:46;1.70;;;1.60;;
5412;SDS011;2729;50.056;8.678;2022-07-29T07:52:13;1.93;;;1.83;;
5412;SDS011;2729;50.056;8.678;2022-07-29T07:54:40;1.53;;;1.43;;
5412;SDS011;2729;50.056;8.678;2022-07-29T07:57:06;2.40;;;1.90;;
5412;SDS011;2729;50.056;8.678;2022-07-29T07:59:32;2.70;;;2.00;;
5412;SDS011;2729;50.056;8.678;2022-07-29T08:01:58;2.93;;;1.80;;
5412;SDS011;2729;50.056;8.678;2022-07-29T08:04:24;1.70;;;1.60;;
5412;SDS011;2729;50.056;8.678;2022-07-29T08:06:50;3.30;;;1.93;;
5412;SDS011;2729;50.056;8.678;2022-07-29T08:09:16;3.20;;;2.10;;
5412;SDS011;2729;50.056;8.678;2022-07-29T08:11:42;2.10;;;1.90;;
5412;SDS011;2729;50.056;8.678;2022-07-29T08:14:08;1.70;;;1.60;;
5412;SDS011;2729;50.056;8.678;2022-07-29T08:16:35;1.60;;;1.50;;
5412;SDS011;2729;50.056;8.678;2022-07-29T08:19:01;2.10;;;1.90;;
5412;SDS011;2729;50.056;8.678;2022-07-29T08:21:27;2.13;;;1.90;;
5412;SDS011;2729;50.056;8.678;2022-07-29T08:23:53;3.70;;;2.00;;
5412;SDS011;2729;50.056;8.678;2022-07-29T08:26:19;2.07;;;1.97;;
5412;SDS011;2729;50.056;8.678;2022-07-29T08:28:47;5.30;;;1.80;;
5412;SDS011;2729;50.056;8.678;2022-07-29T08:31:16;4.70;;;1.83;;
5412;SDS011;2729;50.056;8.678;2022-07-29T08:33:42;1.90;;;1.80;;
5412;SDS011;2729;50.056;8.678;2022-07-29T08:36:08;2.17;;;2.07;;
5412;SDS011;2729;50.056;8.678;2022-07-29T08:38:34;2.13;;;1.80;;
5412;SDS011;2729;50.056;8.678;2022-07-29T08:41:00;2.37;;;2.17;;
5412;SDS011;2729;50.056;8.678;2022-07-29T08:43:27;2.70;;;1.80;;
5412;SDS011;2729;50.056;8.678;2022-07-29T08:45:53;3.10;;;2.80;;
5412;SDS011;2729;50.056;8.678;2022-07-29T08:48:20;1.70;;;1.60;;
5412;SDS011;2729;50.056;8.678;2022-07-29T08:50:48;5.93;;;2.23;;
5412;SDS011;2729;50.056;8.678;2022-07-29T08:53:18;1.70;;;1.60;;
5412;SDS011;2729;50.056;8.678;2022-07-29T08:55:48;2.50;;;2.13;;
5412;SDS011;2729;50.056;8.678;2022-07-29T08:58:18;2.03;;;1.90;;
5412;SDS011;2729;50.056;8.678;2022-07-29T09:00:45;2.30;;;2.13;;
5412;SDS011;2729;50.056;8.678;2022-07-29T09:03:17;4.53;;;2.10;;
5412;SDS011;2729;50.056;8.678;2022-07-29T09:05:45;2.40;;;2.20;;
5412;SDS011;2729;50.056;8.678;2022-07-29T09:08:12;6.43;;;2.03;;
5412;SDS011;2729;50.056;8.678;2022-07-29T09:10:39;2.33;;;2.20;;
5412;SDS011;2729;50.056;8.678;2022-07-29T09:13:05;2.23;;;2.03;;
5412;SDS011;2729;50.056;8.678;2022-07-29T09:15:31;2.80;;;2.00;;
5412;SDS011;2729;50.056;8.678;2022-07-29T09:17:57;2.00;;;1.80;;
5412;SDS011;2729;50.056;8.678;2022-07-29T09:20:24;7.27;;;1.90;;
5412;SDS011;2729;50.056;8.678;2022-07-29T09:22:51;2.60;;;2.40;;
5412;SDS011;2729;50.056;8.678;2022-07-29T09:25:32;2.57;;;2.07;;
5412;SDS011;2729;50.056;8.678;2022-07-29T09:28:12;3.30;;;2.27;;
5412;SDS011;2729;50.056;8.678;2022-07-29T09:30:50;2.03;;;1.93;;
5412;SDS011;2729;50.056;8.678;2022-07-29T09:33:17;2.17;;;1.97;;
5412;SDS011;2729;50.056;8.678;2022-07-29T09:35:43;2.47;;;2.27;;
5412;SDS011;2729;50.056;8.678;2022-07-29T09:38:10;2.07;;;1.97;;
5412;SDS011;2729;50.056;8.678;2022-07-29T09:40:37;3.00;;;2.30;;
5412;SDS011;2729;50.056;8.678;2022-07-29T09:43:10;2.00;;;1.90;;
5412;SDS011;2729;50.056;8.678;2022-07-29T09:45:37;2.50;;;2.07;;
5412;SDS011;2729;50.056;8.678;2022-07-29T09:48:14;3.40;;;2.70;;
5412;SDS011;2729;50.056;8.678;2022-07-29T09:50:44;2.10;;;2.00;;
5412;SDS011;2729;50.056;8.678;2022-07-29T09:53:12;3.10;;;2.17;;
5412;SDS011;2729;50.056;8.678;2022-07-29T09:55:55;4.63;;;2.00;;
5412;SDS011;2729;50.056;8.678;2022-07-29T09:58:22;2.20;;;2.10;;
5412;SDS011;2729;50.056;8.678;2022-07-29T10:00:49;2.13;;;2.00;;
5412;SDS011;2729;50.056;8.678;2022-07-29T10:03:16;4.30;;;2.17;;
5412;SDS011;2729;50.056;8.678;2022-07-29T10:05:43;2.50;;;2.30;;
5412;SDS011;2729;50.056;8.678;2022-07-29T10:08:10;3.03;;;1.90;;
5412;SDS011;2729;50.056;8.678;2022-07-29T10:10:38;2.90;;;2.10;;
5412;SDS011;2729;50.056;8.678;2022-07-29T10:13:08;2.13;;;2.00;;
5412;SDS011;2729;50.056;8.678;2022-07-29T10:15:41;2.33;;;2.13;;
5412;SDS011;2729;50.056;8.678;2022-07-29T10:18:10;2.60;;;2.40;;
5412;SDS011;2729;50.056;8.678;2022-07-29T10:20:38;2.47;;;2.10;;
5412;SDS011;2729;50.056;8.678;2022-07-29T10:23:04;2.10;;;2.00;;
5412;SDS011;2729;50.056;8.678;2022-07-29T10:25:31;2.87;;;2.30;;
5412;SDS011;2729;50.056;8.678;2022-07-29T10:27:57;2.97;;;2.50;;
5412;SDS011;2729;50.056;8.678;2022-07-29T10:30:24;1.80;;;1.70;;
5412;SDS011;2729;50.056;8.678;2022-07-29T10:32:54;1.80;;;1.70;;
5412;SDS011;2729;50.056;8.678;2022-07-29T10:35:33;2.20;;;2.10;;
5412;SDS011;2729;50.056;8.678;2022-07-29T10:40:57;2.40;;;2.20;;
5412;SDS011;2729;50.056;8.678;2022-07-29T10:43:51;2.17;;;2.00;;
5412;SDS011;2729;50.056;8.678;2022-07-29T10:46:20;7.63;;;2.47;;
5412;SDS011;2729;50.056;8.678;2022-07-29T10:51:51;2.83;;;2.40;;
5412;SDS011;2729;50.056;8.678;2022-07-29T10:59:45;3.10;;;2.60;;
5412;SDS011;2729;50.056;8.678;2022-07-29T11:07:22;3.70;;;3.10;;
5412;SDS011;2729;50.056;8.678;2022-07-29T11:15:09;7.40;;;2.30;;
5412;SDS011;2729;50.056;8.678;2022-07-29T11:20:38;6.03;;;2.87;;
5412;SDS011;2729;50.056;8.678;2022-07-29T11:26:12;3.60;;;2.10;;
5412;SDS011;2729;50.056;8.678;2022-07-29T11:28:49;2.63;;;1.97;;
5412;SDS011;2729;50.056;8.678;2022-07-29T11:31:32;2.10;;;2.00;;
5412;SDS011;2729;50.056;8.678;2022-07-29T11:39:33;2.33;;;2.17;;
5412;SDS011;2729;50.056;8.678;2022-07-29T11:44:54;2.30;;;2.20;;
5412;SDS011;2729;50.056;8.678;2022-07-29T11:47:25;2.53;;;2.33;;
5412;SDS011;2729;50.056;8.678;2022-07-29T11:49:53;2.53;;;2.33;;
5412;SDS011;2729;50.056;8.678;2022-07-29T11:52:20;4.93;;;2.50;;
5412;SDS011;2729;50.056;8.678;2022-07-29T11:54:47;5.23;;;2.60;;
5412;SDS011;2729;50.056;8.678;2022-07-29T11:57:14;3.07;;;2.77;;
5412;SDS011;2729;50.056;8.678;2022-07-29T11:59:43;4.80;;;2.80;;
5412;SDS011;2729;50.056;8.678;2022-07-29T12:02:11;2.57;;;2.40;;
5412;SDS011;2729;50.056;8.678;2022-07-29T12:04:56;4.07;;;2.67;;
5412;SDS011;2729;50.056;8.678;2022-07-29T12:07:27;2.50;;;2.10;;
5412;SDS011;2729;50.056;8.678;2022-07-29T12:09:57;1.93;;;1.83;;
5412;SDS011;2729;50.056;8.678;2022-07-29T12:12:23;2.57;;;2.37;;
5412;SDS011;2729;50.056;8.678;2022-07-29T12:14:50;4.70;;;2.87;;
5412;SDS011;2729;50.056;8.678;2022-07-29T12:17:26;2.80;;;2.60;;
5412;SDS011;2729;50.056;8.678;2022-07-29T12:19:55;2.00;;;1.90;;
5412;SDS011;2729;50.056;8.678;2022-07-29T12:22:25;2.57;;;2.43;;
5412;SDS011;2729;50.056;8.678;2022-07-29T12:24:53;2.83;;;2.53;;
5412;SDS011;2729;50.056;8.678;2022-07-29T12:27:19;2.93;;;2.73;;
5412;SDS011;2729;50.056;8.678;2022-07-29T12:29:58;3.10;;;2.70;;
5412;SDS011;2729;50.056;8.678;2022-07-29T12:35:05;2.77;;;2.57;;
5412;SDS011;2729;50.056;8.678;2022-07-29T12:37:35;4.33;;;2.53;;
5412;SDS011;2729;50.056;8.678;2022-07-29T12:40:03;2.70;;;2.50;;
5412;SDS011;2729;50.056;8.678;2022-07-29T12:42:30;2.77;;;2.60;;
5412;SDS011;2729;50.056;8.678;2022-07-29T12:44:57;2.60;;;2.40;;
5412;SDS011;2729;50.056;8.678;2022-07-29T12:47:23;2.37;;;2.27;;
5412;SDS011;2729;50.056;8.678;2022-07-29T12:49:49;3.37;;;2.67;;
5412;SDS011;2729;50.056;8.678;2022-07-29T12:52:29;2.50;;;2.40;;
5412;SDS011;2729;50.056;8.678;2022-07-29T12:54:57;3.37;;;2.80;;
5412;SDS011;2729;50.056;8.678;2022-07-29T12:57:24;2.87;;;2.60;;
5412;SDS011;2729;50.056;8.678;2022-07-29T13:02:33;2.70;;;2.47;;
5412;SDS011;2729;50.056;8.678;2022-07-29T13:05:00;2.37;;;2.27;;
5412;SDS011;2729;50.056;8.678;2022-07-29T13:07:28;2.93;;;2.73;;
5412;SDS011;2729;50.056;8.678;2022-07-29T13:10:11;3.60;;;3.00;;
5412;SDS011;2729;50.056;8.678;2022-07-29T13:13:01;2.97;;;2.70;;
5412;SDS011;2729;50.056;8.678;2022-07-29T13:15:31;2.80;;;2.60;;
5412;SDS011;2729;50.056;8.678;2022-07-29T13:17:58;3.90;;;2.60;;
5412;SDS011;2729;50.056;8.678;2022-07-29T13:20:25;3.87;;;2.80;;
5412;SDS011;2729;50.056;8.678;2022-07-29T13:22:58;3.90;;;2.70;;
5412;SDS011;2729;50.056;8.678;2022-07-29T13:25:27;4.00;;;2.70;;
5412;SDS011;2729;50.056;8.678;2022-07-29T13:27:57;8.90;;;2.80;;
5412;SDS011;2729;50.056;8.678;2022-07-29T13:30:25;4.70;;;3.13;;
5412;SDS011;2729;50.056;8.678;2022-07-29T13:32:51;2.33;;;2.13;;
5412;SDS011;2729;50.056;8.678;2022-07-29T13:35:18;3.23;;;2.50;;
5412;SDS011;2729;50.056;8.678;2022-07-29T13:37:44;2.80;;;2.60;;
5412;SDS011;2729;50.056;8.678;2022-07-29T13:40:11;3.10;;;2.90;;
5412;SDS011;2729;50.056;8.678;2022-07-29T13:42:37;2.77;;;2.57;;
5412;SDS011;2729;50.056;8.678;2022-07-29T13:45:04;4.53;;;2.47;;
5412;SDS011;2729;50.056;8.678;2022-07-29T13:47:32;4.00;;;2.90;;
5412;SDS011;2729;50.056;8.678;2022-07-29T13:49:58;8.77;;;2.77;;
5412;SDS011;2729;50.056;8.678;2022-07-29T13:52:24;2.43;;;2.23;;
5412;SDS011;2729;50.056;8.678;2022-07-29T13:54:49;2.60;;;2.40;;
5412;SDS011;2729;50.056;8.678;2022-07-29T13:57:15;2.97;;;2.60;;
5412;SDS011;2729;50.056;8.678;2022-07-29T13:59:42;2.77;;;2.57;;
5412;SDS011;2729;50.056;8.678;2022-07-29T14:02:09;4.43;;;2.93;;
5412;SDS011;2729;50.056;8.678;2022-07-29T14:04:35;3.03;;;2.83;;
5412;SDS011;2729;50.056;8.678;2022-07-29T14:07:02;2.83;;;2.60;;
5412;SDS011;2729;50.056;8.678;2022-07-29T14:09:28;2.70;;;2.50;;
5412;SDS011;2729;50.056;8.678;2022-07-29T14:11:54;3.50;;;2.53;;
5412;SDS011;2729;50.056;8.678;2022-07-29T14:14:20;2.90;;;2.60;;
5412;SDS011;2729;50.056;8.678;2022-07-29T14:16:46;3.53;;;3.00;;
5412;SDS011;2729;50.056;8.678;2022-07-29T14:19:12;3.00;;;2.80;;
5412;SDS011;2729;50.056;8.678;2022-07-29T14:21:38;2.73;;;2.53;;
5412;SDS011;2729;50.056;8.678;2022-07-29T14:24:05;2.83;;;2.43;;
5412;SDS011;2729;50.056;8.678;2022-07-29T14:26:31;2.30;;;2.20;;
5412;SDS011;2729;50.056;8.678;2022-07-29T14:28:58;5.80;;;2.50;;
5412;SDS011;2729;50.056;8.678;2022-07-29T14:31:23;8.03;;;3.60;;
5412;SDS011;2729;50.056;8.678;2022-07-29T14:33:49;2.83;;;2.63;;
5412;SDS011;2729;50.056;8.678;2022-07-29T14:36:15;5.70;;;2.60;;
5412;SDS011;2729;50.056;8.678;2022-07-29T14:38:41;5.13;;;2.33;;
5412;SDS011;2729;50.056;8.678;2022-07-29T14:41:07;4.23;;;2.60;;
5412;SDS011;2729;50.056;8.678;2022-07-29T14:43:34;2.90;;;2.60;;
5412;SDS011;2729;50.056;8.678;2022-07-29T14:46:00;2.40;;;2.23;;
5412;SDS011;2729;50.056;8.678;2022-07-29T14:48:27;3.40;;;2.60;;
5412;SDS011;2729;50.056;8.678;2022-07-29T14:50:53;3.63;;;2.37;;
5412;SDS011;2729;50.056;8.678;2022-07-29T14:53:20;2.60;;;2.40;;
5412;SDS011;2729;50.056;8.678;2022-07-29T14:55:46;3.73;;;2.80;;
5412;SDS011;2729;50.056;8.678;2022-07-29T14:58:12;4.10;;;3.07;;
5412;SDS011;2729;50.056;8.678;2022-07-29T15:00:38;2.77;;;2.57;;
5412;SDS011;2729;50.056;8.678;2022-07-29T15:03:04;2.97;;;2.80;;
5412;SDS011;2729;50.056;8.678;2022-07-29T15:05:30;2.33;;;2.20;;
5412;SDS011;2729;50.056;8.678;2022-07-29T15:07:57;4.37;;;2.70;;
5412;SDS011;2729;50.056;8.678;2022-07-29T15:10:24;4.80;;;2.50;;
5412;SDS011;2729;50.056;8.678;2022-07-29T15:12:53;3.97;;;2.47;;
5412;SDS011;2729;50.056;8.678;2022-07-29T15:15:19;2.50;;;2.30;;
5412;SDS011;2729;50.056;8.678;2022-07-29T15:17:45;2.83;;;2.27;;
5412;SDS011;2729;50.056;8.678;2022-07-29T15:20:11;2.03;;;1.93;;
5412;SDS011;2729;50.056;8.678;2022-07-29T15:22:37;3.80;;;2.40;;
5412;SDS011;2729;50.056;8.678;2022-07-29T15:25:04;2.70;;;2.33;;
5412;SDS011;2729;50.056;8.678;2022-07-29T15:27:30;3.33;;;2.20;;
5412;SDS011;2729;50.056;8.678;2022-07-29T15:29:56;2.00;;;1.80;;
5412;SDS011;2729;50.056;8.678;2022-07-29T15:32:22;2.10;;;2.00;;
5412;SDS011;2729;50.056;8.678;2022-07-29T15:34:48;3.10;;;2.50;;
5412;SDS011;2729;50.056;8.678;2022-07-29T15:37:14;2.33;;;2.13;;
5412;SDS011;2729;50.056;8.678;2022-07-29T15:39:40;4.07;;;3.07;;
5412;SDS011;2729;50.056;8.678;2022-07-29T15:42:06;2.70;;;2.13;;
5412;SDS011;2729;50.056;8.678;2022-07-29T15:44:32;3.17;;;2.13;;
5412;SDS011;2729;50.056;8.678;2022-07-29T15:46:59;2.50;;;2.30;;
5412;SDS011;2729;50.056;8.678;2022-07-29T15:49:28;2.67;;;2.47;;
5412;SDS011;2729;50.056;8.678;2022-07-29T15:51:58;2.83;;;2.63;;
5412;SDS011;2729;50.056;8.678;2022-07-29T15:54:25;3.33;;;1.97;;
5412;SDS011;2729;50.056;8.678;2022-07-29T15:56:51;3.80;;;2.10;;
5412;SDS011;2729;50.056;8.678;2022-07-29T15:59:18;2.60;;;2.40;;
5412;SDS011;2729;50.056;8.678;2022-07-29T16:01:44;2.37;;;2.17;;
5412;SDS011;2729;50.056;8.678;2022-07-29T16:04:10;2.07;;;1.97;;
5412;SDS011;2729;50.056;8.678;2022-07-29T16:06:36;4.90;;;2.43;;
5412;SDS011;2729;50.056;8.678;2022-07-29T16:09:02;2.07;;;1.97;;
5412;SDS011;2729;50.056;8.678;2022-07-29T16:11:28;1.77;;;1.67;;